sensor_id;sensor_type;location;lat;lon;timestamp;P1;durP1;ratioP1;P2;durP2;ratioP2
25721;SDS011;13578;53.450;15.496;2022-10-31T00:00:20;13.13;;;7.95;;
25721;SDS011;13578;53.450;15.496;2022-10-31T00:03:20;12.88;;;8.85;;
25721;SDS011;13578;53.450;15.496;2022-10-31T00:06:21;14.93;;;8.40;;
25721;SDS011;13578;53.450;15.496;2022-10-31T00:09:22;12.40;;;8.52;;
25721;SDS011;13578;53.450;15.496;2022-10-31T00:12:23;16.42;;;9.07;;
25721;SDS011;13578;53.450;15.496;2022-10-31T00:15:23;19.10;;;9.43;;
25721;SDS011;13578;53.450;15.496;2022-10-31T00:18:24;15.48;;;10.20;;
25721;SDS011;13578;53.450;15.496;2022-10-31T00:21:25;13.93;;;9.15;;
25721;SDS011;13578;53.450;15.496;2022-10-31T00:24:26;19.75;;;8.82;;
25721;SDS011;13578;53.450;15.496;2022-10-31T00:27:27;16.73;;;8.68;;
25721;SDS011;13578;53.450;15.496;2022-10-31T00:30:28;12.65;;;7.53;;
25721;SDS011;13578;53.450;15.496;2022-10-31T00:33:28;13.27;;;8.00;;
25721;SDS011;13578;53.450;15.496;2022-10-31T00:36:29;37.22;;;9.95;;
25721;SDS011;13578;53.450;15.496;2022-10-31T00:39:30;18.75;;;9.93;;
25721;SDS011;13578;53.450;15.496;2022-10-31T00:42:30;13.15;;;8.60;;
25721;SDS011;13578;53.450;15.496;2022-10-31T00:45:31;14.23;;;9.10;;
25721;SDS011;13578;53.450;15.496;2022-10-31T00:48:31;18.83;;;7.53;;
25721;SDS011;13578;53.450;15.496;2022-10-31T00:51:32;16.83;;;8.82;;
25721;SDS011;13578;53.450;15.496;2022-10-31T00:54:33;15.52;;;9.90;;
25721;SDS011;13578;53.450;15.496;2022-10-31T00:57:33;14.98;;;9.38;;
25721;SDS011;13578;53.450;15.496;2022-10-31T01:00:34;17.38;;;9.93;;
25721;SDS011;13578;53.450;15.496;2022-10-31T01:03:34;17.70;;;11.35;;
25721;SDS011;13578;53.450;15.496;2022-10-31T01:06:35;15.82;;;9.68;;
25721;SDS011;13578;53.450;15.496;2022-10-31T01:09:36;22.60;;;10.60;;
25721;SDS011;13578;53.450;15.496;2022-10-31T01:12:40;21.58;;;10.30;;
25721;SDS011;13578;53.450;15.496;2022-10-31T01:15:43;14.70;;;8.05;;
25721;SDS011;13578;53.450;15.496;2022-10-31T01:18:44;12.65;;;7.78;;
25721;SDS011;13578;53.450;15.496;2022-10-31T01:21:45;13.10;;;9.25;;
25721;SDS011;13578;53.450;15.496;2022-10-31T01:24:45;15.50;;;9.80;;
25721;SDS011;13578;53.450;15.496;2022-10-31T01:27:46;15.60;;;9.68;;
25721;SDS011;13578;53.450;15.496;2022-10-31T01:30:47;18.23;;;9.32;;
25721;SDS011;13578;53.450;15.496;2022-10-31T01:33:47;21.30;;;9.98;;
25721;SDS011;13578;53.450;15.496;2022-10-31T01:36:48;16.90;;;9.40;;
25721;SDS011;13578;53.450;15.496;2022-10-31T01:39:51;17.70;;;9.45;;
25721;SDS011;13578;53.450;15.496;2022-10-31T01:42:51;18.30;;;10.45;;
25721;SDS011;13578;53.450;15.496;2022-10-31T01:45:52;14.57;;;8.35;;
25721;SDS011;13578;53.450;15.496;2022-10-31T01:48:54;15.15;;;10.32;;
25721;SDS011;13578;53.450;15.496;2022-10-31T01:51:58;15.45;;;10.15;;
25721;SDS011;13578;53.450;15.496;2022-10-31T01:58:07;19.30;;;10.35;;
25721;SDS011;13578;53.450;15.496;2022-10-31T02:01:12;30.63;;;10.38;;
25721;SDS011;13578;53.450;15.496;2022-10-31T02:04:14;15.40;;;9.00;;
25721;SDS011;13578;53.450;15.496;2022-10-31T02:07:16;23.60;;;10.15;;
25721;SDS011;13578;53.450;15.496;2022-10-31T02:10:22;14.38;;;9.23;;
25721;SDS011;13578;53.450;15.496;2022-10-31T02:13:23;63.17;;;13.35;;
25721;SDS011;13578;53.450;15.496;2022-10-31T02:16:24;31.75;;;10.00;;
25721;SDS011;13578;53.450;15.496;2022-10-31T02:22:40;15.70;;;9.50;;
25721;SDS011;13578;53.450;15.496;2022-10-31T02:36:10;25.67;;;9.32;;
25721;SDS011;13578;53.450;15.496;2022-10-31T02:39:22;21.73;;;9.85;;
25721;SDS011;13578;53.450;15.496;2022-10-31T02:45:44;26.40;;;9.27;;
25721;SDS011;13578;53.450;15.496;2022-10-31T02:48:52;51.92;;;9.05;;
25721;SDS011;13578;53.450;15.496;2022-10-31T02:51:57;11.38;;;7.82;;
25721;SDS011;13578;53.450;15.496;2022-10-31T02:54:58;14.77;;;8.02;;
25721;SDS011;13578;53.450;15.496;2022-10-31T02:58:10;19.13;;;9.30;;
25721;SDS011;13578;53.450;15.496;2022-10-31T03:04:32;18.88;;;7.68;;
25721;SDS011;13578;53.450;15.496;2022-10-31T03:10:57;26.88;;;7.75;;
25721;SDS011;13578;53.450;15.496;2022-10-31T03:14:04;10.40;;;6.78;;
25721;SDS011;13578;53.450;15.496;2022-10-31T03:17:16;14.35;;;7.63;;
25721;SDS011;13578;53.450;15.496;2022-10-31T03:20:26;17.48;;;7.22;;
25721;SDS011;13578;53.450;15.496;2022-10-31T03:23:33;11.27;;;7.50;;
25721;SDS011;13578;53.450;15.496;2022-10-31T03:26:38;10.40;;;7.30;;
25721;SDS011;13578;53.450;15.496;2022-10-31T03:29:46;12.38;;;6.82;;
25721;SDS011;13578;53.450;15.496;2022-10-31T03:32:51;10.35;;;6.25;;
25721;SDS011;13578;53.450;15.496;2022-10-31T03:35:54;13.23;;;7.70;;
25721;SDS011;13578;53.450;15.496;2022-10-31T03:38:57;18.23;;;9.02;;
25721;SDS011;13578;53.450;15.496;2022-10-31T03:45:12;16.35;;;9.65;;
25721;SDS011;13578;53.450;15.496;2022-10-31T03:48:18;17.42;;;8.73;;
25721;SDS011;13578;53.450;15.496;2022-10-31T03:54:43;16.75;;;8.38;;
25721;SDS011;13578;53.450;15.496;2022-10-31T04:00:52;17.92;;;8.45;;
25721;SDS011;13578;53.450;15.496;2022-10-31T04:03:56;13.02;;;8.00;;
25721;SDS011;13578;53.450;15.496;2022-10-31T04:06:58;15.68;;;7.53;;
25721;SDS011;13578;53.450;15.496;2022-10-31T04:10:00;11.13;;;7.65;;
25721;SDS011;13578;53.450;15.496;2022-10-31T04:13:08;12.63;;;7.63;;
25721;SDS011;13578;53.450;15.496;2022-10-31T04:16:14;17.17;;;8.13;;
25721;SDS011;13578;53.450;15.496;2022-10-31T04:19:16;53.53;;;11.15;;
25721;SDS011;13578;53.450;15.496;2022-10-31T04:22:16;11.60;;;7.35;;
25721;SDS011;13578;53.450;15.496;2022-10-31T04:25:17;11.63;;;7.93;;
25721;SDS011;13578;53.450;15.496;2022-10-31T04:28:18;10.90;;;7.47;;
25721;SDS011;13578;53.450;15.496;2022-10-31T04:31:19;34.10;;;8.48;;
25721;SDS011;13578;53.450;15.496;2022-10-31T04:34:19;13.88;;;7.60;;
25721;SDS011;13578;53.450;15.496;2022-10-31T04:37:20;11.90;;;6.88;;
25721;SDS011;13578;53.450;15.496;2022-10-31T04:40:21;11.57;;;7.68;;
25721;SDS011;13578;53.450;15.496;2022-10-31T04:43:21;13.65;;;6.90;;
25721;SDS011;13578;53.450;15.496;2022-10-31T04:46:22;10.88;;;6.68;;
25721;SDS011;13578;53.450;15.496;2022-10-31T04:49:22;11.25;;;7.65;;
25721;SDS011;13578;53.450;15.496;2022-10-31T04:52:23;17.83;;;7.38;;
25721;SDS011;13578;53.450;15.496;2022-10-31T04:55:24;19.58;;;8.20;;
25721;SDS011;13578;53.450;15.496;2022-10-31T04:58:24;11.32;;;6.43;;
25721;SDS011;13578;53.450;15.496;2022-10-31T05:01:25;12.30;;;7.55;;
25721;SDS011;13578;53.450;15.496;2022-10-31T05:04:26;12.05;;;6.53;;
25721;SDS011;13578;53.450;15.496;2022-10-31T05:07:26;9.68;;;6.65;;
25721;SDS011;13578;53.450;15.496;2022-10-31T05:10:28;11.13;;;6.75;;
25721;SDS011;13578;53.450;15.496;2022-10-31T05:13:30;13.25;;;6.22;;
25721;SDS011;13578;53.450;15.496;2022-10-31T05:16:31;12.63;;;7.13;;
25721;SDS011;13578;53.450;15.496;2022-10-31T05:19:32;9.35;;;6.88;;
25721;SDS011;13578;53.450;15.496;2022-10-31T05:22:32;9.80;;;6.75;;
25721;SDS011;13578;53.450;15.496;2022-10-31T05:25:33;7.88;;;6.00;;
25721;SDS011;13578;53.450;15.496;2022-10-31T05:28:34;13.85;;;6.85;;
25721;SDS011;13578;53.450;15.496;2022-10-31T05:31:34;11.90;;;6.72;;
25721;SDS011;13578;53.450;15.496;2022-10-31T05:34:35;7.68;;;5.50;;
25721;SDS011;13578;53.450;15.496;2022-10-31T05:37:35;9.38;;;6.32;;
25721;SDS011;13578;53.450;15.496;2022-10-31T05:40:36;9.18;;;6.30;;
25721;SDS011;13578;53.450;15.496;2022-10-31T05:43:37;8.23;;;5.68;;
25721;SDS011;13578;53.450;15.496;2022-10-31T05:46:37;7.22;;;5.32;;
25721;SDS011;13578;53.450;15.496;2022-10-31T05:49:38;7.85;;;5.78;;
25721;SDS011;13578;53.450;15.496;2022-10-31T05:52:38;9.45;;;6.38;;
25721;SDS011;13578;53.450;15.496;2022-10-31T05:55:39;9.02;;;5.18;;
25721;SDS011;13578;53.450;15.496;2022-10-31T05:58:43;5.90;;;4.38;;
25721;SDS011;13578;53.450;15.496;2022-10-31T06:01:43;7.30;;;4.28;;
25721;SDS011;13578;53.450;15.496;2022-10-31T06:04:44;12.75;;;5.55;;
25721;SDS011;13578;53.450;15.496;2022-10-31T06:07:44;5.82;;;4.55;;
25721;SDS011;13578;53.450;15.496;2022-10-31T06:10:45;7.18;;;4.65;;
25721;SDS011;13578;53.450;15.496;2022-10-31T06:13:45;7.35;;;4.63;;
25721;SDS011;13578;53.450;15.496;2022-10-31T06:16:46;6.90;;;4.75;;
25721;SDS011;13578;53.450;15.496;2022-10-31T06:19:47;14.50;;;4.78;;
25721;SDS011;13578;53.450;15.496;2022-10-31T06:22:47;4.50;;;3.53;;
25721;SDS011;13578;53.450;15.496;2022-10-31T06:25:49;5.40;;;4.22;;
25721;SDS011;13578;53.450;15.496;2022-10-31T06:28:50;6.80;;;4.68;;
25721;SDS011;13578;53.450;15.496;2022-10-31T06:31:51;6.47;;;4.75;;
25721;SDS011;13578;53.450;15.496;2022-10-31T06:34:52;6.30;;;4.80;;
25721;SDS011;13578;53.450;15.496;2022-10-31T06:37:52;6.63;;;4.70;;
25721;SDS011;13578;53.450;15.496;2022-10-31T06:40:54;5.82;;;4.65;;
25721;SDS011;13578;53.450;15.496;2022-10-31T06:43:54;5.65;;;4.15;;
25721;SDS011;13578;53.450;15.496;2022-10-31T06:46:55;6.57;;;4.00;;
25721;SDS011;13578;53.450;15.496;2022-10-31T06:49:56;6.03;;;4.13;;
25721;SDS011;13578;53.450;15.496;2022-10-31T06:52:57;5.20;;;3.83;;
25721;SDS011;13578;53.450;15.496;2022-10-31T06:55:59;7.05;;;3.85;;
25721;SDS011;13578;53.450;15.496;2022-10-31T06:59:00;11.73;;;4.80;;
25721;SDS011;13578;53.450;15.496;2022-10-31T07:02:00;5.97;;;4.47;;
25721;SDS011;13578;53.450;15.496;2022-10-31T07:05:01;5.03;;;3.80;;
25721;SDS011;13578;53.450;15.496;2022-10-31T07:08:03;5.25;;;4.10;;
25721;SDS011;13578;53.450;15.496;2022-10-31T07:11:06;5.85;;;4.45;;
25721;SDS011;13578;53.450;15.496;2022-10-31T07:14:07;10.82;;;4.30;;
25721;SDS011;13578;53.450;15.496;2022-10-31T07:17:07;5.75;;;4.05;;
25721;SDS011;13578;53.450;15.496;2022-10-31T07:20:08;10.68;;;4.10;;
25721;SDS011;13578;53.450;15.496;2022-10-31T07:23:09;5.70;;;3.95;;
25721;SDS011;13578;53.450;15.496;2022-10-31T07:26:11;6.72;;;3.78;;
25721;SDS011;13578;53.450;15.496;2022-10-31T07:29:11;5.00;;;3.50;;
25721;SDS011;13578;53.450;15.496;2022-10-31T07:32:12;6.45;;;4.20;;
25721;SDS011;13578;53.450;15.496;2022-10-31T07:35:20;4.05;;;3.47;;
25721;SDS011;13578;53.450;15.496;2022-10-31T07:38:23;4.45;;;3.60;;
25721;SDS011;13578;53.450;15.496;2022-10-31T07:41:24;9.57;;;3.75;;
25721;SDS011;13578;53.450;15.496;2022-10-31T07:44:24;5.47;;;3.50;;
25721;SDS011;13578;53.450;15.496;2022-10-31T07:47:25;8.57;;;3.92;;
25721;SDS011;13578;53.450;15.496;2022-10-31T07:50:27;25.00;;;5.60;;
25721;SDS011;13578;53.450;15.496;2022-10-31T07:53:29;14.00;;;5.05;;
25721;SDS011;13578;53.450;15.496;2022-10-31T07:56:29;9.52;;;5.88;;
25721;SDS011;13578;53.450;15.496;2022-10-31T07:59:30;38.40;;;8.10;;
25721;SDS011;13578;53.450;15.496;2022-10-31T08:02:31;12.73;;;5.43;;
25721;SDS011;13578;53.450;15.496;2022-10-31T08:05:32;10.80;;;6.10;;
25721;SDS011;13578;53.450;15.496;2022-10-31T08:08:33;16.83;;;7.10;;
25721;SDS011;13578;53.450;15.496;2022-10-31T08:11:34;11.40;;;6.32;;
25721;SDS011;13578;53.450;15.496;2022-10-31T08:14:34;11.73;;;6.68;;
25721;SDS011;13578;53.450;15.496;2022-10-31T08:17:36;28.40;;;8.80;;
25721;SDS011;13578;53.450;15.496;2022-10-31T08:20:37;20.27;;;8.60;;
25721;SDS011;13578;53.450;15.496;2022-10-31T08:23:37;33.40;;;10.07;;
25721;SDS011;13578;53.450;15.496;2022-10-31T08:26:38;17.30;;;8.60;;
25721;SDS011;13578;53.450;15.496;2022-10-31T08:29:39;25.90;;;10.20;;
25721;SDS011;13578;53.450;15.496;2022-10-31T08:32:39;17.73;;;8.80;;
25721;SDS011;13578;53.450;15.496;2022-10-31T08:35:40;16.33;;;9.05;;
25721;SDS011;13578;53.450;15.496;2022-10-31T08:38:40;25.10;;;10.02;;
25721;SDS011;13578;53.450;15.496;2022-10-31T08:41:41;23.27;;;10.60;;
25721;SDS011;13578;53.450;15.496;2022-10-31T08:44:42;19.08;;;10.73;;
25721;SDS011;13578;53.450;15.496;2022-10-31T08:47:42;30.02;;;11.27;;
25721;SDS011;13578;53.450;15.496;2022-10-31T08:50:43;16.23;;;9.88;;
25721;SDS011;13578;53.450;15.496;2022-10-31T08:53:45;20.10;;;9.35;;
25721;SDS011;13578;53.450;15.496;2022-10-31T08:56:46;20.38;;;10.32;;
25721;SDS011;13578;53.450;15.496;2022-10-31T08:59:46;23.92;;;12.00;;
25721;SDS011;13578;53.450;15.496;2022-10-31T09:02:54;24.83;;;11.32;;
25721;SDS011;13578;53.450;15.496;2022-10-31T09:06:00;27.02;;;12.05;;
25721;SDS011;13578;53.450;15.496;2022-10-31T09:09:02;18.77;;;10.50;;
25721;SDS011;13578;53.450;15.496;2022-10-31T09:12:03;25.83;;;12.15;;
25721;SDS011;13578;53.450;15.496;2022-10-31T09:15:04;21.23;;;11.57;;
25721;SDS011;13578;53.450;15.496;2022-10-31T09:18:06;26.00;;;11.48;;
25721;SDS011;13578;53.450;15.496;2022-10-31T09:21:08;27.23;;;13.15;;
25721;SDS011;13578;53.450;15.496;2022-10-31T09:24:08;29.23;;;12.63;;
25721;SDS011;13578;53.450;15.496;2022-10-31T09:27:09;35.03;;;15.20;;
25721;SDS011;13578;53.450;15.496;2022-10-31T09:30:10;28.13;;;13.68;;
25721;SDS011;13578;53.450;15.496;2022-10-31T09:33:11;34.63;;;15.07;;
25721;SDS011;13578;53.450;15.496;2022-10-31T09:36:12;32.55;;;14.77;;
25721;SDS011;13578;53.450;15.496;2022-10-31T09:39:13;28.48;;;14.20;;
25721;SDS011;13578;53.450;15.496;2022-10-31T09:42:29;28.30;;;14.30;;
25721;SDS011;13578;53.450;15.496;2022-10-31T09:52:33;28.45;;;14.77;;
25721;SDS011;13578;53.450;15.496;2022-10-31T09:55:37;27.23;;;14.43;;
25721;SDS011;13578;53.450;15.496;2022-10-31T09:58:42;27.92;;;13.45;;
25721;SDS011;13578;53.450;15.496;2022-10-31T10:05:09;30.52;;;13.52;;
25721;SDS011;13578;53.450;15.496;2022-10-31T10:08:16;31.17;;;14.35;;
25721;SDS011;13578;53.450;15.496;2022-10-31T10:18:43;25.25;;;13.27;;
25721;SDS011;13578;53.450;15.496;2022-10-31T10:25:13;33.58;;;12.73;;
25721;SDS011;13578;53.450;15.496;2022-10-31T10:28:30;27.75;;;13.40;;
25721;SDS011;13578;53.450;15.496;2022-10-31T10:31:40;29.80;;;14.10;;
25721;SDS011;13578;53.450;15.496;2022-10-31T10:34:53;33.97;;;13.73;;
25721;SDS011;13578;53.450;15.496;2022-10-31T10:38:05;27.50;;;13.43;;
25721;SDS011;13578;53.450;15.496;2022-10-31T10:41:15;31.60;;;14.40;;
25721;SDS011;13578;53.450;15.496;2022-10-31T10:44:20;27.83;;;13.38;;
25721;SDS011;13578;53.450;15.496;2022-10-31T10:47:20;28.70;;;13.55;;
25721;SDS011;13578;53.450;15.496;2022-10-31T10:50:47;35.13;;;14.25;;
25721;SDS011;13578;53.450;15.496;2022-10-31T10:53:54;25.45;;;14.27;;
25721;SDS011;13578;53.450;15.496;2022-10-31T11:00:55;25.27;;;13.48;;
25721;SDS011;13578;53.450;15.496;2022-10-31T11:03:56;31.25;;;14.70;;
25721;SDS011;13578;53.450;15.496;2022-10-31T11:07:00;24.23;;;13.15;;
25721;SDS011;13578;53.450;15.496;2022-10-31T11:10:06;21.17;;;12.18;;
25721;SDS011;13578;53.450;15.496;2022-10-31T11:13:22;24.42;;;12.25;;
25721;SDS011;13578;53.450;15.496;2022-10-31T11:19:27;21.35;;;12.25;;
25721;SDS011;13578;53.450;15.496;2022-10-31T11:22:28;24.20;;;12.32;;
25721;SDS011;13578;53.450;15.496;2022-10-31T11:25:29;25.45;;;12.35;;
25721;SDS011;13578;53.450;15.496;2022-10-31T11:28:30;28.45;;;13.38;;
25721;SDS011;13578;53.450;15.496;2022-10-31T11:31:34;29.47;;;13.93;;
25721;SDS011;13578;53.450;15.496;2022-10-31T11:34:36;28.63;;;13.75;;
25721;SDS011;13578;53.450;15.496;2022-10-31T11:37:45;30.25;;;16.17;;
25721;SDS011;13578;53.450;15.496;2022-10-31T11:40:56;33.92;;;16.23;;
25721;SDS011;13578;53.450;15.496;2022-10-31T11:44:13;37.20;;;17.08;;
25721;SDS011;13578;53.450;15.496;2022-10-31T11:50:25;42.80;;;17.85;;
25721;SDS011;13578;53.450;15.496;2022-10-31T11:53:52;35.53;;;17.35;;
25721;SDS011;13578;53.450;15.496;2022-10-31T12:00:04;59.70;;;23.10;;
25721;SDS011;13578;53.450;15.496;2022-10-31T12:06:23;65.72;;;24.30;;
25721;SDS011;13578;53.450;15.496;2022-10-31T12:09:32;56.05;;;23.85;;
25721;SDS011;13578;53.450;15.496;2022-10-31T12:12:56;59.85;;;24.98;;
25721;SDS011;13578;53.450;15.496;2022-10-31T12:16:21;50.03;;;23.00;;
25721;SDS011;13578;53.450;15.496;2022-10-31T12:19:29;58.42;;;25.63;;
25721;SDS011;13578;53.450;15.496;2022-10-31T12:29:17;63.05;;;25.13;;
25721;SDS011;13578;53.450;15.496;2022-10-31T12:32:26;57.17;;;25.02;;
25721;SDS011;13578;53.450;15.496;2022-10-31T12:36:00;65.40;;;26.23;;
25721;SDS011;13578;53.450;15.496;2022-10-31T12:45:58;68.75;;;26.52;;
25721;SDS011;13578;53.450;15.496;2022-10-31T13:06:03;51.22;;;22.73;;
25721;SDS011;13578;53.450;15.496;2022-10-31T13:09:10;54.47;;;23.55;;
25721;SDS011;13578;53.450;15.496;2022-10-31T13:12:17;60.22;;;22.42;;
25721;SDS011;13578;53.450;15.496;2022-10-31T13:15:22;49.58;;;20.27;;
25721;SDS011;13578;53.450;15.496;2022-10-31T13:18:35;43.97;;;19.37;;
25721;SDS011;13578;53.450;15.496;2022-10-31T13:25:23;42.70;;;20.15;;
25721;SDS011;13578;53.450;15.496;2022-10-31T13:31:45;43.00;;;19.98;;
25721;SDS011;13578;53.450;15.496;2022-10-31T13:34:47;50.65;;;20.60;;
25721;SDS011;13578;53.450;15.496;2022-10-31T13:38:02;60.67;;;22.30;;
25721;SDS011;13578;53.450;15.496;2022-10-31T13:41:20;38.08;;;18.63;;
25721;SDS011;13578;53.450;15.496;2022-10-31T13:44:37;42.15;;;19.67;;
25721;SDS011;13578;53.450;15.496;2022-10-31T13:47:38;34.72;;;18.48;;
25721;SDS011;13578;53.450;15.496;2022-10-31T13:50:43;36.78;;;17.35;;
25721;SDS011;13578;53.450;15.496;2022-10-31T13:53:57;37.53;;;18.20;;
25721;SDS011;13578;53.450;15.496;2022-10-31T13:57:12;37.38;;;17.60;;
25721;SDS011;13578;53.450;15.496;2022-10-31T14:00:24;39.65;;;17.13;;
25721;SDS011;13578;53.450;15.496;2022-10-31T14:03:26;34.45;;;17.38;;
25721;SDS011;13578;53.450;15.496;2022-10-31T14:06:38;50.70;;;17.77;;
25721;SDS011;13578;53.450;15.496;2022-10-31T14:16:23;40.65;;;17.85;;
25721;SDS011;13578;53.450;15.496;2022-10-31T14:19:26;44.00;;;18.55;;
25721;SDS011;13578;53.450;15.496;2022-10-31T14:22:31;35.35;;;18.15;;
25721;SDS011;13578;53.450;15.496;2022-10-31T14:25:34;41.33;;;17.30;;
25721;SDS011;13578;53.450;15.496;2022-10-31T14:28:36;39.05;;;17.42;;
25721;SDS011;13578;53.450;15.496;2022-10-31T14:31:37;45.70;;;18.40;;
25721;SDS011;13578;53.450;15.496;2022-10-31T14:38:09;42.67;;;17.33;;
25721;SDS011;13578;53.450;15.496;2022-10-31T14:51:11;29.98;;;14.40;;
25721;SDS011;13578;53.450;15.496;2022-10-31T14:54:20;52.90;;;17.27;;
25721;SDS011;13578;53.450;15.496;2022-10-31T14:57:29;31.10;;;15.75;;
25721;SDS011;13578;53.450;15.496;2022-10-31T15:00:34;36.95;;;17.70;;
25721;SDS011;13578;53.450;15.496;2022-10-31T15:03:36;36.60;;;17.15;;
25721;SDS011;13578;53.450;15.496;2022-10-31T15:06:41;40.83;;;17.63;;
25721;SDS011;13578;53.450;15.496;2022-10-31T15:09:44;38.35;;;15.30;;
25721;SDS011;13578;53.450;15.496;2022-10-31T15:13:08;35.08;;;15.50;;
25721;SDS011;13578;53.450;15.496;2022-10-31T15:16:11;36.38;;;16.92;;
25721;SDS011;13578;53.450;15.496;2022-10-31T15:19:16;37.00;;;17.08;;
25721;SDS011;13578;53.450;15.496;2022-10-31T15:22:22;47.35;;;18.13;;
25721;SDS011;13578;53.450;15.496;2022-10-31T15:25:27;39.60;;;16.85;;
25721;SDS011;13578;53.450;15.496;2022-10-31T15:28:32;35.95;;;16.98;;
25721;SDS011;13578;53.450;15.496;2022-10-31T15:31:32;39.22;;;16.88;;
25721;SDS011;13578;53.450;15.496;2022-10-31T15:34:40;33.70;;;16.55;;
25721;SDS011;13578;53.450;15.496;2022-10-31T15:37:44;34.65;;;16.30;;
25721;SDS011;13578;53.450;15.496;2022-10-31T15:40:51;41.92;;;17.05;;
25721;SDS011;13578;53.450;15.496;2022-10-31T15:43:59;44.30;;;17.83;;
25721;SDS011;13578;53.450;15.496;2022-10-31T15:47:04;31.38;;;16.73;;
25721;SDS011;13578;53.450;15.496;2022-10-31T15:50:18;33.13;;;15.98;;
25721;SDS011;13578;53.450;15.496;2022-10-31T15:53:25;38.83;;;18.23;;
25721;SDS011;13578;53.450;15.496;2022-10-31T15:56:35;45.30;;;17.75;;
25721;SDS011;13578;53.450;15.496;2022-10-31T15:59:36;39.72;;;16.63;;
25721;SDS011;13578;53.450;15.496;2022-10-31T16:02:37;32.92;;;16.45;;
25721;SDS011;13578;53.450;15.496;2022-10-31T16:05:38;40.20;;;16.10;;
25721;SDS011;13578;53.450;15.496;2022-10-31T16:08:48;36.78;;;15.02;;
25721;SDS011;13578;53.450;15.496;2022-10-31T16:11:50;34.80;;;17.05;;
25721;SDS011;13578;53.450;15.496;2022-10-31T16:14:51;54.03;;;16.45;;
25721;SDS011;13578;53.450;15.496;2022-10-31T16:17:54;35.53;;;16.10;;
25721;SDS011;13578;53.450;15.496;2022-10-31T16:20:55;29.02;;;14.80;;
25721;SDS011;13578;53.450;15.496;2022-10-31T16:24:19;64.28;;;17.98;;
25721;SDS011;13578;53.450;15.496;2022-10-31T16:27:21;29.05;;;14.43;;
25721;SDS011;13578;53.450;15.496;2022-10-31T16:33:39;44.95;;;16.35;;
25721;SDS011;13578;53.450;15.496;2022-10-31T16:36:40;31.92;;;15.95;;
25721;SDS011;13578;53.450;15.496;2022-10-31T16:39:42;43.92;;;17.05;;
25721;SDS011;13578;53.450;15.496;2022-10-31T16:42:42;45.38;;;18.73;;
25721;SDS011;13578;53.450;15.496;2022-10-31T16:45:45;33.97;;;16.50;;
25721;SDS011;13578;53.450;15.496;2022-10-31T16:48:47;31.58;;;15.07;;
25721;SDS011;13578;53.450;15.496;2022-10-31T16:51:47;37.58;;;15.13;;
25721;SDS011;13578;53.450;15.496;2022-10-31T16:54:48;32.15;;;15.02;;
25721;SDS011;13578;53.450;15.496;2022-10-31T16:57:50;32.08;;;14.50;;
25721;SDS011;13578;53.450;15.496;2022-10-31T17:00:52;33.42;;;14.60;;
25721;SDS011;13578;53.450;15.496;2022-10-31T17:03:53;33.92;;;14.90;;
25721;SDS011;13578;53.450;15.496;2022-10-31T17:06:54;31.55;;;13.30;;
25721;SDS011;13578;53.450;15.496;2022-10-31T17:09:55;39.38;;;15.75;;
25721;SDS011;13578;53.450;15.496;2022-10-31T17:12:55;33.17;;;13.55;;
25721;SDS011;13578;53.450;15.496;2022-10-31T17:15:59;26.27;;;13.05;;
25721;SDS011;13578;53.450;15.496;2022-10-31T17:19:03;32.22;;;13.02;;
25721;SDS011;13578;53.450;15.496;2022-10-31T17:22:04;28.40;;;11.60;;
25721;SDS011;13578;53.450;15.496;2022-10-31T17:25:05;34.40;;;13.52;;
25721;SDS011;13578;53.450;15.496;2022-10-31T17:28:12;25.67;;;11.13;;
25721;SDS011;13578;53.450;15.496;2022-10-31T17:31:22;33.58;;;12.45;;
25721;SDS011;13578;53.450;15.496;2022-10-31T17:34:27;24.08;;;10.82;;
25721;SDS011;13578;53.450;15.496;2022-10-31T17:37:27;37.25;;;11.38;;
25721;SDS011;13578;53.450;15.496;2022-10-31T17:40:28;26.67;;;10.70;;
25721;SDS011;13578;53.450;15.496;2022-10-31T17:43:29;21.45;;;10.60;;
25721;SDS011;13578;53.450;15.496;2022-10-31T17:46:29;24.50;;;10.25;;
25721;SDS011;13578;53.450;15.496;2022-10-31T17:49:30;29.02;;;9.93;;
25721;SDS011;13578;53.450;15.496;2022-10-31T17:52:31;22.45;;;9.93;;
25721;SDS011;13578;53.450;15.496;2022-10-31T17:55:31;24.05;;;10.10;;
25721;SDS011;13578;53.450;15.496;2022-10-31T17:58:33;20.45;;;9.07;;
25721;SDS011;13578;53.450;15.496;2022-10-31T18:01:35;21.92;;;9.98;;
25721;SDS011;13578;53.450;15.496;2022-10-31T18:04:35;26.13;;;9.43;;
25721;SDS011;13578;53.450;15.496;2022-10-31T18:07:37;26.35;;;10.25;;
25721;SDS011;13578;53.450;15.496;2022-10-31T18:10:38;23.10;;;9.60;;
25721;SDS011;13578;53.450;15.496;2022-10-31T18:13:38;34.40;;;10.98;;
25721;SDS011;13578;53.450;15.496;2022-10-31T18:16:39;24.92;;;10.40;;
25721;SDS011;13578;53.450;15.496;2022-10-31T18:19:40;21.58;;;9.07;;
25721;SDS011;13578;53.450;15.496;2022-10-31T18:22:40;28.92;;;11.50;;
25721;SDS011;13578;53.450;15.496;2022-10-31T18:25:41;23.08;;;9.15;;
25721;SDS011;13578;53.450;15.496;2022-10-31T18:28:42;26.48;;;11.18;;
25721;SDS011;13578;53.450;15.496;2022-10-31T18:31:43;30.20;;;10.15;;
25721;SDS011;13578;53.450;15.496;2022-10-31T18:34:47;25.52;;;9.98;;
25721;SDS011;13578;53.450;15.496;2022-10-31T18:37:48;25.67;;;10.02;;
25721;SDS011;13578;53.450;15.496;2022-10-31T18:40:50;32.33;;;10.45;;
25721;SDS011;13578;53.450;15.496;2022-10-31T18:43:50;26.13;;;10.68;;
25721;SDS011;13578;53.450;15.496;2022-10-31T18:46:55;19.40;;;9.20;;
25721;SDS011;13578;53.450;15.496;2022-10-31T18:49:55;23.90;;;9.40;;
25721;SDS011;13578;53.450;15.496;2022-10-31T18:52:56;25.73;;;10.02;;
25721;SDS011;13578;53.450;15.496;2022-10-31T18:55:57;29.90;;;10.52;;
25721;SDS011;13578;53.450;15.496;2022-10-31T18:59:00;26.02;;;9.30;;
25721;SDS011;13578;53.450;15.496;2022-10-31T19:02:02;25.17;;;9.18;;
25721;SDS011;13578;53.450;15.496;2022-10-31T19:05:02;25.23;;;11.23;;
25721;SDS011;13578;53.450;15.496;2022-10-31T19:08:03;28.02;;;9.98;;
25721;SDS011;13578;53.450;15.496;2022-10-31T19:11:09;24.20;;;9.45;;
25721;SDS011;13578;53.450;15.496;2022-10-31T19:14:14;20.60;;;7.75;;
25721;SDS011;13578;53.450;15.496;2022-10-31T19:17:14;23.63;;;8.65;;
25721;SDS011;13578;53.450;15.496;2022-10-31T19:20:15;21.30;;;7.95;;
25721;SDS011;13578;53.450;15.496;2022-10-31T19:23:16;23.58;;;9.00;;
25721;SDS011;13578;53.450;15.496;2022-10-31T19:26:17;19.10;;;8.43;;
25721;SDS011;13578;53.450;15.496;2022-10-31T19:29:17;24.80;;;8.65;;
25721;SDS011;13578;53.450;15.496;2022-10-31T19:32:18;20.75;;;8.27;;
25721;SDS011;13578;53.450;15.496;2022-10-31T19:35:19;24.70;;;8.80;;
25721;SDS011;13578;53.450;15.496;2022-10-31T19:38:20;24.08;;;9.45;;
25721;SDS011;13578;53.450;15.496;2022-10-31T19:41:22;18.02;;;8.23;;
25721;SDS011;13578;53.450;15.496;2022-10-31T19:44:27;20.80;;;7.47;;
25721;SDS011;13578;53.450;15.496;2022-10-31T19:47:30;30.58;;;9.90;;
25721;SDS011;13578;53.450;15.496;2022-10-31T19:50:32;24.48;;;9.13;;
25721;SDS011;13578;53.450;15.496;2022-10-31T19:53:33;21.60;;;8.90;;
25721;SDS011;13578;53.450;15.496;2022-10-31T19:56:34;21.52;;;8.48;;
25721;SDS011;13578;53.450;15.496;2022-10-31T19:59:34;29.92;;;8.77;;